Time;durP1;ratioP1;P1;durP2;ratioP2;P2;SDS_P1;SDS_P2;PMS_P1;PMS_P2;Temp;Humidity;BMP_temperature;BMP_pressure;BME280_temperature;BME280_humidity;BME280_pressure;Samples;Min_cycle;Max_cycle;Signal;HPM_P1;HPM_P2
2021/04/16 00:02:10;;;;;;;8.48;4.80;;;;;;;;;;5075957;28;20321;-63
2021/04/16 00:04:37;;;;;;;5.38;4.35;;;;;;;;;;5076105;28;20202;-63
2021/04/16 00:07:03;;;;;;;6.80;4.70;;;;;;;;;;5075794;28;20307;-63
2021/04/16 00:09:30;;;;;;;6.70;3.53;;;;;;;;;;5074557;28;20204;-63
2021/04/16 00:11:57;;;;;;;7.38;4.80;;;;;;;;;;5075937;28;20252;-62
2021/04/16 00:14:25;;;;;;;5.55;3.75;;;;;;;;;;5075704;28;20198;-62
2021/04/16 00:16:52;;;;;;;6.50;4.72;;;;;;;;;;5075293;28;20290;-63
2021/04/16 00:19:18;;;;;;;5.72;4.47;;;;;;;;;;5075594;28;20285;-63
2021/04/16 00:21:45;;;;;;;5.45;3.92;;;;;;;;;;5075184;28;20195;-63
2021/04/16 00:24:13;;;;;;;4.93;3.88;;;;;;;;;;5075807;28;20194;-63
2021/04/16 00:26:40;;;;;;;6.43;4.40;;;;;;;;;;5075352;28;20222;-63
2021/04/16 00:29:07;;;;;;;5.43;4.32;;;;;;;;;;5075110;28;20209;-63
2021/04/16 00:31:35;;;;;;;5.28;4.30;;;;;;;;;;5075886;28;20282;-63
2021/04/16 00:34:01;;;;;;;4.90;4.45;;;;;;;;;;5075836;28;20197;-63
2021/04/16 00:36:29;;;;;;;11.52;4.32;;;;;;;;;;5076525;28;20306;-63
2021/04/16 00:38:55;;;;;;;7.10;5.03;;;;;;;;;;5075137;28;20670;-63
2021/04/16 00:41:23;;;;;;;10.43;4.75;;;;;;;;;;5074816;28;20305;-62
2021/04/16 00:43:50;;;;;;;4.90;4.32;;;;;;;;;;5075116;28;20196;-63
2021/04/16 00:46:25;;;;;;;6.30;4.35;;;;;;;;;;5075042;28;20217;-63
2021/04/16 00:48:54;;;;;;;8.10;4.55;;;;;;;;;;5074973;28;20595;-63
2021/04/16 00:51:23;;;;;;;6.28;4.53;;;;;;;;;;5075194;28;20197;-63
2021/04/16 00:53:51;;;;;;;5.18;4.50;;;;;;;;;;5074556;28;20659;-62
2021/04/16 00:56:17;;;;;;;4.43;4.03;;;;;;;;;;5074822;28;20296;-63
2021/04/16 00:58:44;;;;;;;9.07;4.15;;;;;;;;;;5074887;28;20199;-63
2021/04/16 01:01:11;;;;;;;6.03;4.68;;;;;;;;;;5074401;28;20199;-63
2021/04/16 01:03:38;;;;;;;7.30;4.45;;;;;;;;;;5074551;28;20744;-63
2021/04/16 01:06:06;;;;;;;5.05;4.40;;;;;;;;;;5074628;28;20218;-63
2021/04/16 01:08:33;;;;;;;5.65;4.55;;;;;;;;;;5075256;28;20205;-62
2021/04/16 01:11:00;;;;;;;6.90;4.72;;;;;;;;;;5074626;28;20282;-64
2021/04/16 01:13:27;;;;;;;5.97;4.95;;;;;;;;;;5074160;28;20199;-62
2021/04/16 01:15:57;;;;;;;7.25;4.35;;;;;;;;;;5074516;28;20260;-62
2021/04/16 01:18:26;;;;;;;8.00;5.18;;;;;;;;;;5074548;28;20191;-62
2021/04/16 01:20:55;;;;;;;6.22;4.75;;;;;;;;;;5073695;28;20195;-62
2021/04/16 01:23:26;;;;;;;7.70;4.55;;;;;;;;;;5074348;28;20201;-63
2021/04/16 01:25:55;;;;;;;5.15;4.65;;;;;;;;;;5074054;28;20211;-63
2021/04/16 01:28:23;;;;;;;8.00;4.97;;;;;;;;;;5074379;28;20199;-62
2021/04/16 01:30:54;;;;;;;4.20;3.80;;;;;;;;;;5073953;28;20280;-62
2021/04/16 01:33:21;;;;;;;5.63;4.60;;;;;;;;;;5074203;28;20234;-63
2021/04/16 01:35:48;;;;;;;5.30;4.85;;;;;;;;;;5074123;28;20194;-63
2021/04/16 01:38:15;;;;;;;4.85;4.45;;;;;;;;;;5074676;28;20194;-63
2021/04/16 01:40:41;;;;;;;5.20;4.70;;;;;;;;;;5074092;28;20196;-63
2021/04/16 01:43:16;;;;;;;7.80;4.57;;;;;;;;;;5073895;28;20540;-63
2021/04/16 01:45:43;;;;;;;6.88;4.28;;;;;;;;;;5073713;28;20825;-63
2021/04/16 01:48:09;;;;;;;5.25;4.75;;;;;;;;;;5073924;28;20277;-62
2021/04/16 01:50:36;;;;;;;6.03;5.05;;;;;;;;;;5074447;28;20186;-63
2021/04/16 01:53:04;;;;;;;6.18;4.38;;;;;;;;;;5073627;28;20656;-63
2021/04/16 01:55:30;;;;;;;4.47;4.00;;;;;;;;;;5074127;28;20285;-63
2021/04/16 01:57:57;;;;;;;5.13;4.70;;;;;;;;;;5074362;28;20198;-63
2021/04/16 02:00:27;;;;;;;5.18;4.32;;;;;;;;;;5073513;28;20205;-62
2021/04/16 02:02:53;;;;;;;4.55;3.80;;;;;;;;;;5073804;28;20194;-63
2021/04/16 02:05:20;;;;;;;7.18;4.82;;;;;;;;;;5074097;28;20217;-63
2021/04/16 02:07:47;;;;;;;6.25;4.53;;;;;;;;;;5073749;28;20202;-64
2021/04/16 02:10:14;;;;;;;10.30;4.80;;;;;;;;;;5073387;28;20198;-64
2021/04/16 02:12:41;;;;;;;6.40;5.03;;;;;;;;;;5074165;28;20190;-64
2021/04/16 02:15:09;;;;;;;5.25;4.75;;;;;;;;;;5073309;28;20652;-64
2021/04/16 02:17:37;;;;;;;5.30;4.63;;;;;;;;;;5073319;28;20282;-63
2021/04/16 02:20:06;;;;;;;5.72;4.30;;;;;;;;;;5073947;28;20249;-63
2021/04/16 02:22:33;;;;;;;6.78;4.95;;;;;;;;;;5073889;28;20277;-63
2021/04/16 02:25:00;;;;;;;5.05;4.32;;;;;;;;;;5073466;28;20198;-62
2021/04/16 02:27:27;;;;;;;5.47;4.90;;;;;;;;;;5073245;28;20380;-63
2021/04/16 02:29:54;;;;;;;5.50;5.00;;;;;;;;;;5073213;28;20209;-63
2021/04/16 02:32:21;;;;;;;6.60;5.18;;;;;;;;;;5073717;28;20200;-63
2021/04/16 02:34:48;;;;;;;12.38;5.05;;;;;;;;;;5078067;28;20203;-63
2021/04/16 02:37:16;;;;;;;8.43;4.65;;;;;;;;;;5077297;28;20285;-64
2021/04/16 02:39:43;;;;;;;10.23;5.55;;;;;;;;;;5077562;28;20594;-63
2021/04/16 02:42:10;;;;;;;8.15;4.45;;;;;;;;;;5077625;28;20200;-63
2021/04/16 02:44:37;;;;;;;7.13;5.18;;;;;;;;;;5077441;28;20290;-64
2021/04/16 02:47:06;;;;;;;9.38;5.32;;;;;;;;;;5077308;28;20268;-64
2021/04/16 02:49:33;;;;;;;7.88;5.50;;;;;;;;;;5078034;28;20221;-63
2021/04/16 02:52:01;;;;;;;5.13;4.57;;;;;;;;;;5077678;28;20198;-64
2021/04/16 02:54:28;;;;;;;8.57;5.15;;;;;;;;;;5077487;28;20201;-64
2021/04/16 02:56:55;;;;;;;6.18;4.93;;;;;;;;;;5077274;28;20198;-63
2021/04/16 02:59:22;;;;;;;8.30;6.20;;;;;;;;;;5077468;28;20206;-64
2021/04/16 03:01:49;;;;;;;8.68;4.88;;;;;;;;;;5076824;28;20198;-64
2021/04/16 03:04:16;;;;;;;5.28;4.78;;;;;;;;;;5077093;28;20203;-64
2021/04/16 03:06:43;;;;;;;8.07;4.82;;;;;;;;;;5076928;28;20223;-64
2021/04/16 03:09:11;;;;;;;9.38;5.47;;;;;;;;;;5076635;28;20194;-64
2021/04/16 03:11:37;;;;;;;12.95;6.28;;;;;;;;;;5077268;28;20204;-63
2021/04/16 03:14:05;;;;;;;7.43;4.95;;;;;;;;;;5076890;28;20239;-63
2021/04/16 03:16:32;;;;;;;7.47;5.40;;;;;;;;;;5076518;28;20210;-63
2021/04/16 03:18:59;;;;;;;6.05;4.85;;;;;;;;;;5076798;28;20281;-63
2021/04/16 03:21:26;;;;;;;7.50;4.97;;;;;;;;;;5076961;28;20288;-63
2021/04/16 03:23:53;;;;;;;10.20;4.72;;;;;;;;;;5076401;28;20195;-63
2021/04/16 03:26:21;;;;;;;10.32;5.00;;;;;;;;;;5076966;28;20309;-63
2021/04/16 03:28:52;;;;;;;8.25;5.60;;;;;;;;;;5076765;28;20563;-63
2021/04/16 03:31:18;;;;;;;6.55;5.07;;;;;;;;;;5076877;28;20218;-63
2021/04/16 03:33:45;;;;;;;7.45;4.85;;;;;;;;;;5076497;28;20194;-63
2021/04/16 03:36:12;;;;;;;6.35;5.72;;;;;;;;;;5076168;28;20205;-64
2021/04/16 03:38:39;;;;;;;7.60;5.65;;;;;;;;;;5076410;28;20281;-63
2021/04/16 03:41:05;;;;;;;6.18;5.57;;;;;;;;;;5076292;28;20216;-64
2021/04/16 03:43:33;;;;;;;10.48;6.53;;;;;;;;;;5076043;28;20252;-64
2021/04/16 03:45:59;;;;;;;6.35;5.35;;;;;;;;;;5076285;28;20648;-64
2021/04/16 03:48:26;;;;;;;6.10;5.40;;;;;;;;;;5075795;28;20313;-63
2021/04/16 03:50:53;;;;;;;6.47;4.82;;;;;;;;;;5076787;28;20221;-64
2021/04/16 03:53:20;;;;;;;8.40;5.80;;;;;;;;;;5075886;28;20206;-63
2021/04/16 03:55:46;;;;;;;7.78;5.35;;;;;;;;;;5076303;28;20202;-63
2021/04/16 03:58:13;;;;;;;10.25;6.57;;;;;;;;;;5076032;28;20230;-63
2021/04/16 04:00:41;;;;;;;6.20;5.57;;;;;;;;;;5076076;28;20324;-63
2021/04/16 04:03:09;;;;;;;7.60;6.80;;;;;;;;;;5076024;28;20557;-63
2021/04/16 04:05:36;;;;;;;7.68;5.68;;;;;;;;;;5075882;28;20245;-63
2021/04/16 04:08:03;;;;;;;6.07;5.47;;;;;;;;;;5076001;28;20196;-64
2021/04/16 04:10:35;;;;;;;6.70;4.80;;;;;;;;;;5075522;28;20285;-63
2021/04/16 04:13:02;;;;;;;9.75;6.22;;;;;;;;;;5076464;28;20199;-63
2021/04/16 04:15:29;;;;;;;6.40;5.80;;;;;;;;;;5076316;28;20551;-64
2021/04/16 04:17:57;;;;;;;6.70;6.10;;;;;;;;;;5076456;28;20192;-65
2021/04/16 04:20:26;;;;;;;6.63;5.90;;;;;;;;;;5076606;28;20223;-64
2021/04/16 04:22:52;;;;;;;11.23;6.10;;;;;;;;;;5075601;28;20203;-64
2021/04/16 04:25:20;;;;;;;9.73;6.03;;;;;;;;;;5075424;28;20648;-65
2021/04/16 04:27:47;;;;;;;8.63;7.20;;;;;;;;;;5076389;28;20280;-65
2021/04/16 04:30:15;;;;;;;7.53;5.53;;;;;;;;;;5076182;28;20198;-66
2021/04/16 04:32:41;;;;;;;9.98;6.32;;;;;;;;;;5075380;28;20244;-64
2021/04/16 04:35:10;;;;;;;7.10;6.00;;;;;;;;;;5069005;28;20587;-64
2021/04/16 04:37:37;;;;;;;7.15;6.45;;;;;;;;;;5064008;28;20382;-64
2021/04/16 04:40:04;;;;;;;10.18;7.53;;;;;;;;;;5055642;28;20202;-65
2021/04/16 04:42:31;;;;;;;9.48;7.20;;;;;;;;;;5055299;28;20194;-64
2021/04/16 04:44:57;;;;;;;14.05;6.20;;;;;;;;;;5054847;28;20257;-64
2021/04/16 04:47:24;;;;;;;7.35;6.55;;;;;;;;;;5055070;28;20304;-63
2021/04/16 04:49:51;;;;;;;9.70;7.10;;;;;;;;;;5054603;28;20266;-64
2021/04/16 04:52:19;;;;;;;7.50;6.78;;;;;;;;;;5054998;28;20268;-64
2021/04/16 04:54:46;;;;;;;7.28;6.35;;;;;;;;;;5054251;28;20191;-64
2021/04/16 04:57:14;;;;;;;9.52;6.97;;;;;;;;;;5054655;28;20209;-64
2021/04/16 04:59:42;;;;;;;7.25;6.20;;;;;;;;;;5054847;28;20195;-63
2021/04/16 05:02:09;;;;;;;11.50;7.18;;;;;;;;;;5054743;28;20195;-63
2021/04/16 05:04:35;;;;;;;8.52;6.97;;;;;;;;;;5056669;28;20192;-63
2021/04/16 05:07:02;;;;;;;8.63;6.63;;;;;;;;;;5074323;28;20230;-64
2021/04/16 05:09:30;;;;;;;9.88;7.25;;;;;;;;;;5074627;28;20196;-64
2021/04/16 05:11:56;;;;;;;8.15;7.07;;;;;;;;;;5074463;28;20281;-64
2021/04/16 05:14:23;;;;;;;9.38;7.10;;;;;;;;;;5074267;28;20294;-64
2021/04/16 05:16:50;;;;;;;7.90;7.20;;;;;;;;;;5074891;28;20198;-64
2021/04/16 05:19:17;;;;;;;8.45;7.68;;;;;;;;;;5074467;28;20228;-64
2021/04/16 05:21:44;;;;;;;8.65;6.80;;;;;;;;;;5074089;28;20668;-64
2021/04/16 05:24:14;;;;;;;7.30;6.60;;;;;;;;;;5074078;28;20190;-64
2021/04/16 05:26:41;;;;;;;8.07;7.28;;;;;;;;;;5074520;28;20214;-63
2021/04/16 05:29:09;;;;;;;7.95;6.20;;;;;;;;;;5074527;28;20281;-63
2021/04/16 05:31:36;;;;;;;8.43;7.03;;;;;;;;;;5074842;28;20195;-64
2021/04/16 05:34:03;;;;;;;8.20;6.95;;;;;;;;;;5074753;28;20236;-63
2021/04/16 05:36:29;;;;;;;8.48;7.05;;;;;;;;;;5073969;28;20596;-63
2021/04/16 05:38:56;;;;;;;10.07;7.00;;;;;;;;;;5073749;28;20343;-64
2021/04/16 05:41:23;;;;;;;8.10;6.18;;;;;;;;;;5074430;28;20209;-68
2021/04/16 05:43:51;;;;;;;7.53;6.10;;;;;;;;;;5073892;28;20198;-62
2021/04/16 05:46:18;;;;;;;9.63;6.53;;;;;;;;;;5073837;28;20214;-62
2021/04/16 05:48:46;;;;;;;10.95;7.22;;;;;;;;;;5073797;28;20364;-62
2021/04/16 05:51:13;;;;;;;7.20;6.30;;;;;;;;;;5073841;28;20233;-62
2021/04/16 05:53:39;;;;;;;10.70;6.53;;;;;;;;;;5073563;28;20206;-63
2021/04/16 05:56:06;;;;;;;8.98;6.28;;;;;;;;;;5073809;28;20274;-63
2021/04/16 05:58:33;;;;;;;9.70;7.60;;;;;;;;;;5073769;28;20198;-63
2021/04/16 06:01:01;;;;;;;9.25;7.13;;;;;;;;;;5073906;28;20649;-62
2021/04/16 06:03:27;;;;;;;10.18;7.05;;;;;;;;;;5073967;28;20195;-63
2021/04/16 06:05:56;;;;;;;10.93;6.88;;;;;;;;;;5074609;28;20693;-62
2021/04/16 06:08:24;;;;;;;10.52;6.75;;;;;;;;;;5075003;28;20235;-63
2021/04/16 06:10:51;;;;;;;8.15;6.47;;;;;;;;;;5076222;28;20225;-62
2021/04/16 06:13:17;;;;;;;13.45;6.60;;;;;;;;;;5074537;28;20194;-62
2021/04/16 06:15:44;;;;;;;8.18;7.38;;;;;;;;;;5074951;28;20543;-62
2021/04/16 06:18:12;;;;;;;8.23;6.70;;;;;;;;;;5073728;28;20284;-63
2021/04/16 06:20:38;;;;;;;9.30;6.45;;;;;;;;;;5073143;28;20298;-63
2021/04/16 06:23:05;;;;;;;7.95;5.35;;;;;;;;;;5073339;28;20198;-63
2021/04/16 06:25:34;;;;;;;7.30;6.60;;;;;;;;;;5073344;28;20195;-62
2021/04/16 06:28:00;;;;;;;7.85;6.03;;;;;;;;;;5073102;28;20206;-62
2021/04/16 06:30:27;;;;;;;6.57;5.93;;;;;;;;;;5073383;28;20198;-62
2021/04/16 06:33:01;;;;;;;9.82;7.05;;;;;;;;;;5073557;28;20194;-63
2021/04/16 06:35:29;;;;;;;6.40;5.80;;;;;;;;;;5073287;28;20593;-62
2021/04/16 06:37:56;;;;;;;7.25;5.68;;;;;;;;;;5073426;28;20532;-63
2021/04/16 06:40:23;;;;;;;6.82;6.13;;;;;;;;;;5073972;28;20214;-64
2021/04/16 06:42:50;;;;;;;6.22;5.57;;;;;;;;;;5073550;28;20551;-63
2021/04/16 06:45:19;;;;;;;8.07;6.55;;;;;;;;;;5073249;28;20224;-63
2021/04/16 06:47:50;;;;;;;6.60;5.63;;;;;;;;;;5073200;28;20218;-62
2021/04/16 06:50:17;;;;;;;6.25;5.65;;;;;;;;;;5073255;28;20218;-63
2021/04/16 06:52:49;;;;;;;6.13;5.28;;;;;;;;;;5073099;28;20217;-63
2021/04/16 06:55:19;;;;;;;8.63;6.20;;;;;;;;;;5073279;28;20576;-63
2021/04/16 06:57:49;;;;;;;11.38;6.20;;;;;;;;;;5073178;28;20205;-62
2021/04/16 07:00:20;;;;;;;9.98;5.53;;;;;;;;;;5073999;28;20195;-62
2021/04/16 07:02:50;;;;;;;8.30;5.15;;;;;;;;;;5073351;28;20285;-62
2021/04/16 07:05:22;;;;;;;8.80;5.78;;;;;;;;;;5073551;28;20186;-63
2021/04/16 07:07:50;;;;;;;9.38;6.47;;;;;;;;;;5072712;28;20209;-63
2021/04/16 07:10:19;;;;;;;7.30;5.78;;;;;;;;;;5073040;28;20194;-63
2021/04/16 07:12:47;;;;;;;6.97;6.28;;;;;;;;;;5072776;28;20200;-63
2021/04/16 07:15:16;;;;;;;11.15;5.55;;;;;;;;;;5073038;28;20200;-63
2021/04/16 07:17:44;;;;;;;7.63;5.18;;;;;;;;;;5072609;28;20201;-62
2021/04/16 07:20:12;;;;;;;5.88;5.28;;;;;;;;;;5076133;28;20675;-63
2021/04/16 07:22:41;;;;;;;6.70;5.50;;;;;;;;;;5076237;28;20205;-63
2021/04/16 07:25:16;;;;;;;7.82;5.10;;;;;;;;;;5076517;28;20195;-62
2021/04/16 07:27:44;;;;;;;8.35;5.00;;;;;;;;;;5076588;28;20568;-63
2021/04/16 07:30:26;;;;;;;8.10;5.20;;;;;;;;;;5076413;28;20197;-63
2021/04/16 07:32:52;;;;;;;6.65;4.82;;;;;;;;;;5076566;28;20190;-63
2021/04/16 07:35:24;;;;;;;5.93;4.57;;;;;;;;;;5076761;28;20652;-63
2021/04/16 07:37:57;;;;;;;9.13;4.93;;;;;;;;;;5076231;28;20195;-63
2021/04/16 07:40:26;;;;;;;5.00;3.97;;;;;;;;;;5076857;28;20187;-62
2021/04/16 07:42:54;;;;;;;7.60;5.55;;;;;;;;;;5076574;28;20206;-63
2021/04/16 07:45:35;;;;;;;4.78;3.95;;;;;;;;;;5076429;28;20289;-63
2021/04/16 07:48:14;;;;;;;5.90;4.35;;;;;;;;;;5075864;28;20322;-63
2021/04/16 07:50:41;;;;;;;7.53;5.03;;;;;;;;;;5075747;28;20189;-63
2021/04/16 07:53:25;;;;;;;4.60;4.10;;;;;;;;;;5076083;28;20200;-63
2021/04/16 07:56:03;;;;;;;8.82;4.57;;;;;;;;;;5076459;28;20321;-63
2021/04/16 07:58:30;;;;;;;5.47;4.90;;;;;;;;;;5075651;28;20218;-63
2021/04/16 08:00:57;;;;;;;7.97;4.85;;;;;;;;;;5075575;28;20203;-63
2021/04/16 08:03:25;;;;;;;5.03;4.57;;;;;;;;;;5076460;28;20227;-63
2021/04/16 08:05:53;;;;;;;5.63;5.03;;;;;;;;;;5075748;28;20317;-63
2021/04/16 08:08:21;;;;;;;8.50;5.65;;;;;;;;;;5075803;28;20204;-63
2021/04/16 08:10:49;;;;;;;6.20;5.60;;;;;;;;;;5075714;28;20191;-63
2021/04/16 08:13:19;;;;;;;8.63;5.60;;;;;;;;;;5076373;28;20530;-63
2021/04/16 08:15:46;;;;;;;6.63;5.03;;;;;;;;;;5076573;28;20626;-63
2021/04/16 08:18:20;;;;;;;6.53;5.05;;;;;;;;;;5075309;28;20195;-63
2021/04/16 08:20:52;;;;;;;5.78;5.20;;;;;;;;;;5076133;28;20278;-62
2021/04/16 08:23:19;;;;;;;8.25;4.65;;;;;;;;;;5076353;28;20179;-63
2021/04/16 08:25:49;;;;;;;6.55;5.00;;;;;;;;;;5076065;28;20748;-63
2021/04/16 08:28:17;;;;;;;7.63;5.40;;;;;;;;;;5076133;28;20223;-63
2021/04/16 08:30:56;;;;;;;7.78;4.30;;;;;;;;;;5074393;28;20287;-63
2021/04/16 08:33:26;;;;;;;7.32;4.75;;;;;;;;;;5075448;28;20282;-63
2021/04/16 08:35:57;;;;;;;4.65;4.25;;;;;;;;;;5074925;28;20239;-64
2021/04/16 08:38:25;;;;;;;5.20;4.70;;;;;;;;;;5075818;28;20342;-63
2021/04/16 08:40:54;;;;;;;7.10;5.03;;;;;;;;;;5074823;28;20287;-62
2021/04/16 08:43:25;;;;;;;7.03;4.80;;;;;;;;;;5075526;28;20306;-62
2021/04/16 08:45:52;;;;;;;15.60;4.80;;;;;;;;;;5074728;28;20628;-62
2021/04/16 08:48:22;;;;;;;8.07;5.00;;;;;;;;;;5074907;28;20264;-62
2021/04/16 08:50:51;;;;;;;4.97;4.57;;;;;;;;;;5075101;28;20183;-63
2021/04/16 08:53:17;;;;;;;9.23;4.68;;;;;;;;;;5074521;28;20199;-63
2021/04/16 08:55:45;;;;;;;6.68;4.78;;;;;;;;;;5074551;28;20202;-63
2021/04/16 08:58:16;;;;;;;6.93;4.47;;;;;;;;;;5075039;28;20219;-62
2021/04/16 09:00:45;;;;;;;6.15;4.70;;;;;;;;;;5074728;28;20219;-63
2021/04/16 09:03:16;;;;;;;5.45;4.95;;;;;;;;;;5074691;28;20281;-63
2021/04/16 09:05:53;;;;;;;4.80;4.32;;;;;;;;;;5074707;28;20281;-63
2021/04/16 09:08:21;;;;;;;9.10;4.38;;;;;;;;;;5074824;28;20630;-63
2021/04/16 09:10:49;;;;;;;7.03;4.50;;;;;;;;;;5074265;28;20233;-63
2021/04/16 09:13:35;;;;;;;7.57;4.22;;;;;;;;;;5074989;28;20653;-63
2021/04/16 09:16:22;;;;;;;3.95;3.55;;;;;;;;;;5076316;28;20234;-63
2021/04/16 09:18:51;;;;;;;5.80;3.75;;;;;;;;;;5077220;28;20277;-63
2021/04/16 09:21:21;;;;;;;5.88;4.57;;;;;;;;;;5078044;28;20617;-64
2021/04/16 09:23:58;;;;;;;6.38;4.05;;;;;;;;;;5075921;28;20635;-63
2021/04/16 09:26:43;;;;;;;5.43;3.33;;;;;;;;;;5074819;28;20640;-64
2021/04/16 09:29:20;;;;;;;9.43;3.92;;;;;;;;;;5075429;28;20589;-63
2021/04/16 09:31:52;;;;;;;7.55;3.80;;;;;;;;;;5075355;28;20203;-62
2021/04/16 09:34:21;;;;;;;6.53;4.32;;;;;;;;;;5074332;28;20543;-62
2021/04/16 09:36:50;;;;;;;5.63;3.65;;;;;;;;;;5074381;28;20281;-63
2021/04/16 09:39:31;;;;;;;4.00;3.60;;;;;;;;;;5073980;28;20254;-62
2021/04/16 09:41:57;;;;;;;4.72;4.10;;;;;;;;;;5073442;28;20191;-62
2021/04/16 09:44:45;;;;;;;7.20;4.72;;;;;;;;;;5073906;28;20197;-63
2021/04/16 09:47:11;;;;;;;6.00;4.03;;;;;;;;;;5073863;28;20299;-62
2021/04/16 09:49:56;;;;;;;3.05;2.80;;;;;;;;;;5073971;28;20223;-63
2021/04/16 09:52:41;;;;;;;4.38;3.15;;;;;;;;;;5074225;28;20663;-63
2021/04/16 09:55:27;;;;;;;3.92;3.25;;;;;;;;;;5073616;28;20359;-63
2021/04/16 09:57:53;;;;;;;6.50;3.03;;;;;;;;;;5073381;28;20217;-63
2021/04/16 10:00:38;;;;;;;3.33;2.75;;;;;;;;;;5073683;28;20287;-62
2021/04/16 10:03:22;;;;;;;3.55;2.72;;;;;;;;;;5073763;28;20195;-62
2021/04/16 10:05:50;;;;;;;3.45;3.15;;;;;;;;;;5073371;28;20345;-63
2021/04/16 10:08:20;;;;;;;5.22;2.80;;;;;;;;;;5074356;28;20203;-63
2021/04/16 10:10:46;;;;;;;2.90;2.63;;;;;;;;;;5073166;28;20210;-63
2021/04/16 10:13:14;;;;;;;3.25;2.95;;;;;;;;;;5073665;28;20762;-63
2021/04/16 10:15:42;;;;;;;4.28;3.85;;;;;;;;;;5073139;28;20287;-63
2021/04/16 10:18:15;;;;;;;7.47;3.58;;;;;;;;;;5073136;28;20561;-63
2021/04/16 10:20:55;;;;;;;4.03;2.95;;;;;;;;;;5073449;28;20188;-63
2021/04/16 10:23:25;;;;;;;3.60;3.25;;;;;;;;;;5074274;28;20274;-63
2021/04/16 12:38:31;;;;;;;5.23;3.20;;;;;;;;;;5075096;28;20395;-64
2021/04/16 12:40:58;;;;;;;2.83;2.63;;;;;;;;;;5074900;28;20489;-64
2021/04/16 12:43:24;;;;;;;3.20;3.00;;;;;;;;;;5075354;28;20521;-67
2021/04/16 12:45:53;;;;;;;5.03;3.30;;;;;;;;;;5074749;28;20478;-67
2021/04/16 12:48:20;;;;;;;4.37;2.60;;;;;;;;;;5074796;28;20527;-67
2021/04/16 12:50:48;;;;;;;2.70;2.50;;;;;;;;;;5076396;28;20462;-67
2021/04/16 12:53:15;;;;;;;2.70;2.50;;;;;;;;;;5076443;28;20956;-68
2021/04/16 12:55:41;;;;;;;3.57;2.97;;;;;;;;;;5074547;28;20440;-67
2021/04/16 12:58:09;;;;;;;3.63;2.73;;;;;;;;;;5074780;28;20438;-66
2021/04/16 13:00:37;;;;;;;3.30;3.00;;;;;;;;;;5074433;28;21021;-66
2021/04/16 13:03:05;;;;;;;3.07;2.83;;;;;;;;;;5074254;28;20440;-66
2021/04/16 13:05:34;;;;;;;2.17;2.08;;;;;;;;;;5074312;28;20436;-66
2021/04/16 13:08:02;;;;;;;6.70;4.77;;;;;;;;;;5074507;28;20263;-67
2021/04/16 13:10:30;;;;;;;5.77;3.10;;;;;;;;;;5074620;28;20445;-65
2021/04/16 13:12:56;;;;;;;3.20;2.90;;;;;;;;;;5065125;28;20963;-67
2021/04/16 13:15:24;;;;;;;2.83;2.47;;;;;;;;;;5056867;28;20441;-66
2021/04/16 13:17:52;;;;;;;6.17;3.20;;;;;;;;;;5054033;28;20544;-67
2021/04/16 13:20:20;;;;;;;3.10;2.67;;;;;;;;;;5054329;28;20440;-66
2021/04/16 13:22:47;;;;;;;6.30;5.70;;;;;;;;;;5054204;28;20527;-66
2021/04/16 13:25:16;;;;;;;4.30;2.37;;;;;;;;;;5055249;28;20817;-66
2021/04/16 13:27:50;;;;;;;3.50;2.30;;;;;;;;;;5054849;28;20556;-66
2021/04/16 13:30:20;;;;;;;2.80;2.60;;;;;;;;;;5054035;28;20441;-66
2021/04/16 13:32:48;;;;;;;3.00;2.30;;;;;;;;;;5054459;28;20467;-68
2021/04/16 13:35:17;;;;;;;4.27;3.47;;;;;;;;;;5054562;28;20827;-67
2021/04/16 13:37:44;;;;;;;3.40;3.00;;;;;;;;;;5054215;28;20460;-67
2021/04/16 13:40:13;;;;;;;3.33;2.63;;;;;;;;;;5053565;28;20442;-67
2021/04/16 13:42:41;;;;;;;3.57;2.70;;;;;;;;;;5066661;28;20500;-67
2021/04/16 13:45:08;;;;;;;5.00;3.70;;;;;;;;;;5073877;28;20969;-66
2021/04/16 13:47:38;;;;;;;3.10;2.80;;;;;;;;;;5073903;28;20868;-67
2021/04/16 13:50:05;;;;;;;3.77;3.00;;;;;;;;;;5073470;28;20463;-67
2021/04/16 13:52:42;;;;;;;2.97;2.63;;;;;;;;;;5073325;28;20497;-68
2021/04/16 13:55:10;;;;;;;3.40;3.10;;;;;;;;;;5074232;28;20448;-67
2021/04/16 13:57:37;;;;;;;4.50;3.40;;;;;;;;;;5074029;28;20471;-67
2021/04/16 14:00:10;;;;;;;3.50;3.17;;;;;;;;;;5074118;28;20788;-67
2021/04/16 14:02:38;;;;;;;4.03;2.90;;;;;;;;;;5073668;28;20432;-67
2021/04/16 14:05:06;;;;;;;5.13;3.90;;;;;;;;;;5073246;28;20438;-68
2021/04/16 14:07:33;;;;;;;4.87;3.40;;;;;;;;;;5073533;28;20472;-67
2021/04/16 14:10:00;;;;;;;17.53;4.63;;;;;;;;;;5073775;28;20577;-67
2021/04/16 14:12:26;;;;;;;8.53;4.20;;;;;;;;;;5073205;28;20913;-68
2021/04/16 14:14:59;;;;;;;70.87;13.77;;;;;;;;;;5073614;28;20440;-67
2021/04/16 14:17:35;;;;;;;4.97;3.43;;;;;;;;;;5074027;28;20535;-68
2021/04/16 14:20:02;;;;;;;6.13;4.13;;;;;;;;;;5073416;28;20446;-67
2021/04/16 14:22:31;;;;;;;3.77;3.20;;;;;;;;;;5074500;28;20450;-67
2021/04/16 14:24:57;;;;;;;3.50;3.20;;;;;;;;;;5076057;28;20516;-67
2021/04/16 14:27:24;;;;;;;2.87;2.67;;;;;;;;;;5075316;28;20484;-67
2021/04/16 14:29:51;;;;;;;4.97;3.90;;;;;;;;;;5073744;28;20509;-67
2021/04/16 14:32:20;;;;;;;3.67;3.27;;;;;;;;;;5073274;28;20437;-67
2021/04/16 14:34:48;;;;;;;3.33;3.03;;;;;;;;;;5073757;28;20451;-68
2021/04/16 14:37:16;;;;;;;7.97;3.40;;;;;;;;;;5074119;28;20531;-67
2021/04/16 14:39:42;;;;;;;4.23;3.80;;;;;;;;;;5073731;28;20524;-67
2021/04/16 14:42:12;;;;;;;6.50;5.17;;;;;;;;;;5072933;28;20497;-67
2021/04/16 14:44:39;;;;;;;5.43;3.30;;;;;;;;;;5072169;28;20943;-67
2021/04/16 14:47:06;;;;;;;3.00;2.77;;;;;;;;;;5073264;28;20476;-67
2021/04/16 14:49:33;;;;;;;4.90;3.20;;;;;;;;;;5072995;28;20637;-67
2021/04/16 14:52:02;;;;;;;3.47;2.87;;;;;;;;;;5073009;28;20448;-67
2021/04/16 14:54:31;;;;;;;8.77;3.50;;;;;;;;;;5073052;28;20856;-67
2021/04/16 14:57:05;;;;;;;7.70;3.90;;;;;;;;;;5074015;28;20440;-67
2021/04/16 14:59:34;;;;;;;4.47;4.07;;;;;;;;;;5073033;28;20424;-67
2021/04/16 15:02:01;;;;;;;3.67;3.37;;;;;;;;;;5072965;28;20489;-67
2021/04/16 15:04:28;;;;;;;4.93;3.27;;;;;;;;;;5072621;28;20989;-67
2021/04/16 15:07:03;;;;;;;4.30;2.60;;;;;;;;;;5072556;28;20486;-67
2021/04/16 15:09:33;;;;;;;4.17;2.63;;;;;;;;;;5073163;28;20507;-67
2021/04/16 15:12:00;;;;;;;2.60;2.40;;;;;;;;;;5071815;28;20457;-66
2021/04/16 15:14:28;;;;;;;3.90;2.70;;;;;;;;;;5073403;28;20476;-68
2021/04/16 15:16:55;;;;;;;3.20;2.90;;;;;;;;;;5073128;28;20447;-67
2021/04/16 15:19:28;;;;;;;2.87;2.67;;;;;;;;;;5072297;28;20444;-67
2021/04/16 15:21:54;;;;;;;2.90;2.70;;;;;;;;;;5072638;28;20464;-68
2021/04/16 15:24:28;;;;;;;3.43;3.13;;;;;;;;;;5072883;28;20971;-67
2021/04/16 15:26:56;;;;;;;3.63;2.40;;;;;;;;;;5072095;28;20509;-67
2021/04/16 15:29:25;;;;;;;3.13;2.80;;;;;;;;;;5072757;28;20449;-67
2021/04/16 15:31:52;;;;;;;5.90;3.70;;;;;;;;;;5072991;28;20535;-67
2021/04/16 15:48:06;;;;;;;3.63;3.30;;;;;;;;;;5075778;28;20476;-68
2021/04/16 15:50:34;;;;;;;4.00;3.60;;;;;;;;;;5076051;28;20429;-68
2021/04/16 15:53:01;;;;;;;4.40;3.23;;;;;;;;;;5075929;28;20519;-68
2021/04/16 15:55:29;;;;;;;2.80;2.60;;;;;;;;;;5075976;28;21011;-68
2021/04/16 15:57:56;;;;;;;3.77;3.40;;;;;;;;;;5076138;28;20548;-67
2021/04/16 16:00:24;;;;;;;3.87;3.53;;;;;;;;;;5075854;28;20470;-69
2021/04/16 16:02:51;;;;;;;2.93;2.73;;;;;;;;;;5075494;28;20436;-68
2021/04/16 16:05:18;;;;;;;3.23;2.93;;;;;;;;;;5075720;28;20441;-68
2021/04/16 16:07:45;;;;;;;3.67;3.23;;;;;;;;;;5075725;28;20511;-69
2021/04/16 16:10:12;;;;;;;3.70;3.33;;;;;;;;;;5075319;28;20452;-69
2021/04/16 16:12:41;;;;;;;5.90;4.43;;;;;;;;;;5075707;28;20452;-69
2021/04/16 16:15:14;;;;;;;5.27;2.97;;;;;;;;;;5075261;28;20441;-70
2021/04/16 16:17:42;;;;;;;4.33;3.10;;;;;;;;;;5076112;28;20445;-68
2021/04/16 16:20:14;;;;;;;5.13;2.80;;;;;;;;;;5075589;28;20436;-68
2021/04/16 16:22:41;;;;;;;11.30;6.63;;;;;;;;;;5075496;28;20433;-67
2021/04/16 16:25:08;;;;;;;3.63;3.33;;;;;;;;;;5075978;28;20531;-69
2021/04/16 16:27:35;;;;;;;4.80;3.30;;;;;;;;;;5074900;28;20637;-68
2021/04/16 16:30:07;;;;;;;6.07;5.07;;;;;;;;;;5075458;28;20436;-68
2021/04/16 16:32:36;;;;;;;6.33;3.57;;;;;;;;;;5075005;28;20763;-67
2021/04/16 16:35:02;;;;;;;3.40;3.10;;;;;;;;;;5074431;28;20794;-68
2021/04/16 16:37:29;;;;;;;6.03;3.00;;;;;;;;;;5074841;28;20484;-67
2021/04/16 16:39:56;;;;;;;5.40;3.13;;;;;;;;;;5075001;28;20549;-68
2021/04/16 16:42:25;;;;;;;3.43;3.07;;;;;;;;;;5074726;28;20998;-67
2021/04/16 16:44:54;;;;;;;5.63;4.70;;;;;;;;;;5073505;28;20476;-68
2021/04/16 16:47:21;;;;;;;4.93;3.10;;;;;;;;;;5074271;28;20476;-68
2021/04/16 16:49:49;;;;;;;4.03;3.63;;;;;;;;;;5075182;28;20513;-69
2021/04/16 16:52:17;;;;;;;6.50;4.13;;;;;;;;;;5072701;28;20520;-69
2021/04/16 16:54:44;;;;;;;5.80;3.67;;;;;;;;;;5073823;28;20432;-69
2021/04/16 16:57:13;;;;;;;6.50;5.30;;;;;;;;;;5075183;28;20441;-68
2021/04/16 16:59:41;;;;;;;8.20;4.03;;;;;;;;;;5074702;28;20441;-68
2021/04/16 17:02:10;;;;;;;3.83;3.03;;;;;;;;;;5074109;28;20445;-68
2021/04/16 17:04:37;;;;;;;5.50;3.60;;;;;;;;;;5074417;28;21002;-68
2021/04/16 17:07:04;;;;;;;8.07;3.33;;;;;;;;;;5073124;28;20985;-68
2021/04/16 17:09:37;;;;;;;6.80;4.50;;;;;;;;;;5074535;28;20860;-68
2021/04/16 17:12:05;;;;;;;4.90;3.70;;;;;;;;;;5073995;28;21008;-68
2021/04/16 17:14:36;;;;;;;3.60;2.83;;;;;;;;;;5074099;28;20483;-68
2021/04/16 17:17:03;;;;;;;4.70;3.70;;;;;;;;;;5074026;28;20918;-68
2021/04/16 17:19:29;;;;;;;11.10;4.80;;;;;;;;;;5074282;28;20523;-68